sensor_id;sensor_type;location;lat;lon;timestamp;pressure;altitude;pressure_sealevel;temperature;humidity
51468;BME280;37545;45.302;-122.946;2023-10-09T00:00:35;100008.00;;;26.88;43.42
51468;BME280;37545;45.302;-122.946;2023-10-09T00:03:17;100003.16;;;26.79;44.10
51468;BME280;37545;45.302;-122.946;2023-10-09T00:05:50;100001.66;;;26.73;43.03
51468;BME280;37545;45.302;-122.946;2023-10-09T00:08:25;99997.28;;;26.72;42.96
51468;BME280;37545;45.302;-122.946;2023-10-09T00:10:58;99994.72;;;26.71;43.20
51468;BME280;37545;45.302;-122.946;2023-10-09T00:13:40;99988.75;;;26.66;43.46
51468;BME280;37545;45.302;-122.946;2023-10-09T00:16:16;99995.16;;;26.62;44.16
51468;BME280;37545;45.302;-122.946;2023-10-09T00:18:49;99984.69;;;26.59;44.17
51468;BME280;37545;45.302;-122.946;2023-10-09T00:21:20;99983.25;;;26.51;44.86
51468;BME280;37545;45.302;-122.946;2023-10-09T00:23:54;99980.97;;;26.44;44.67
51468;BME280;37545;45.302;-122.946;2023-10-09T00:26:25;99978.84;;;26.33;45.13
51468;BME280;37545;45.302;-122.946;2023-10-09T00:28:56;99977.56;;;26.23;44.90
51468;BME280;37545;45.302;-122.946;2023-10-09T00:31:25;99975.25;;;26.15;45.10
51468;BME280;37545;45.302;-122.946;2023-10-09T00:33:59;99965.72;;;26.11;45.10
51468;BME280;37545;45.302;-122.946;2023-10-09T00:36:47;99959.22;;;25.99;46.11
51468;BME280;37545;45.302;-122.946;2023-10-09T00:39:19;99950.91;;;25.88;46.82
51468;BME280;37545;45.302;-122.946;2023-10-09T00:42:07;99947.97;;;25.75;46.61
51468;BME280;37545;45.302;-122.946;2023-10-09T00:44:39;99944.09;;;25.63;46.80
51468;BME280;37545;45.302;-122.946;2023-10-09T00:47:09;99943.72;;;25.52;47.22
51468;BME280;37545;45.302;-122.946;2023-10-09T00:49:52;99938.03;;;25.41;47.26
51468;BME280;37545;45.302;-122.946;2023-10-09T00:52:29;99938.56;;;25.28;48.31
51468;BME280;37545;45.302;-122.946;2023-10-09T00:55:04;99940.03;;;25.15;48.43
51468;BME280;37545;45.302;-122.946;2023-10-09T00:57:42;99933.41;;;25.05;47.75
51468;BME280;37545;45.302;-122.946;2023-10-09T01:00:17;99926.06;;;24.91;47.85
51468;BME280;37545;45.302;-122.946;2023-10-09T01:02:58;99923.81;;;24.82;49.05
51468;BME280;37545;45.302;-122.946;2023-10-09T01:05:45;99921.56;;;24.73;50.20
51468;BME280;37545;45.302;-122.946;2023-10-09T01:08:20;99912.34;;;24.61;50.69
51468;BME280;37545;45.302;-122.946;2023-10-09T01:10:55;99909.16;;;24.53;50.70
51468;BME280;37545;45.302;-122.946;2023-10-09T01:13:27;99905.22;;;24.41;52.07
51468;BME280;37545;45.302;-122.946;2023-10-09T01:16:06;99896.94;;;24.28;53.36
51468;BME280;37545;45.302;-122.946;2023-10-09T01:18:43;99899.44;;;24.09;54.95
51468;BME280;37545;45.302;-122.946;2023-10-09T01:21:13;99896.44;;;23.96;53.28
51468;BME280;37545;45.302;-122.946;2023-10-09T01:23:44;99888.88;;;23.87;53.26
51468;BME280;37545;45.302;-122.946;2023-10-09T01:26:29;99886.66;;;23.76;53.79
51468;BME280;37545;45.302;-122.946;2023-10-09T01:29:09;99877.31;;;23.66;54.96
51468;BME280;37545;45.302;-122.946;2023-10-09T01:31:41;99879.44;;;23.56;54.99
51468;BME280;37545;45.302;-122.946;2023-10-09T01:34:19;99878.81;;;23.50;55.96
51468;BME280;37545;45.302;-122.946;2023-10-09T01:36:51;99874.78;;;23.41;58.07
51468;BME280;37545;45.302;-122.946;2023-10-09T01:39:25;99868.94;;;23.31;58.25
51468;BME280;37545;45.302;-122.946;2023-10-09T01:41:55;99860.47;;;23.23;59.08
51468;BME280;37545;45.302;-122.946;2023-10-09T01:44:27;99869.59;;;23.14;58.95
51468;BME280;37545;45.302;-122.946;2023-10-09T01:47:03;99853.41;;;22.98;59.61
51468;BME280;37545;45.302;-122.946;2023-10-09T01:49:34;99868.56;;;22.93;60.10
51468;BME280;37545;45.302;-122.946;2023-10-09T01:52:04;99861.88;;;22.83;61.17
51468;BME280;37545;45.302;-122.946;2023-10-09T01:54:38;99868.31;;;22.74;62.71
51468;BME280;37545;45.302;-122.946;2023-10-09T01:57:09;99858.09;;;22.65;63.46
51468;BME280;37545;45.302;-122.946;2023-10-09T01:59:39;99860.16;;;22.57;62.44
51468;BME280;37545;45.302;-122.946;2023-10-09T02:02:11;99851.75;;;22.46;62.84
51468;BME280;37545;45.302;-122.946;2023-10-09T02:04:52;99862.47;;;22.40;63.17
51468;BME280;37545;45.302;-122.946;2023-10-09T02:07:30;99860.13;;;22.32;63.91
51468;BME280;37545;45.302;-122.946;2023-10-09T02:10:09;99862.13;;;22.24;63.94
51468;BME280;37545;45.302;-122.946;2023-10-09T02:12:52;99868.50;;;22.15;65.23
51468;BME280;37545;45.302;-122.946;2023-10-09T02:15:26;99866.03;;;22.10;66.65
51468;BME280;37545;45.302;-122.946;2023-10-09T02:18:18;99861.06;;;22.01;66.87
51468;BME280;37545;45.302;-122.946;2023-10-09T02:20:52;99865.69;;;21.94;66.76
51468;BME280;37545;45.302;-122.946;2023-10-09T02:23:27;99869.50;;;21.84;67.01
51468;BME280;37545;45.302;-122.946;2023-10-09T02:26:07;99878.41;;;21.80;66.76
51468;BME280;37545;45.302;-122.946;2023-10-09T02:28:46;99872.44;;;21.73;66.69
51468;BME280;37545;45.302;-122.946;2023-10-09T02:31:25;99873.63;;;21.65;68.87
51468;BME280;37545;45.302;-122.946;2023-10-09T02:33:57;99871.25;;;21.56;69.82
51468;BME280;37545;45.302;-122.946;2023-10-09T02:36:26;99884.69;;;21.46;70.22
51468;BME280;37545;45.302;-122.946;2023-10-09T02:38:55;99867.38;;;21.38;70.17
51468;BME280;37545;45.302;-122.946;2023-10-09T02:41:25;99858.78;;;21.31;70.74
51468;BME280;37545;45.302;-122.946;2023-10-09T02:43:57;99862.56;;;21.21;70.57
51468;BME280;37545;45.302;-122.946;2023-10-09T02:46:36;99862.94;;;21.08;71.10
51468;BME280;37545;45.302;-122.946;2023-10-09T02:49:08;99868.34;;;21.02;71.37
51468;BME280;37545;45.302;-122.946;2023-10-09T02:51:37;99867.66;;;20.96;72.38
51468;BME280;37545;45.302;-122.946;2023-10-09T02:54:08;99855.66;;;20.87;72.52
51468;BME280;37545;45.302;-122.946;2023-10-09T02:56:55;99859.31;;;20.80;72.63
51468;BME280;37545;45.302;-122.946;2023-10-09T02:59:32;99853.38;;;20.73;73.04
51468;BME280;37545;45.302;-122.946;2023-10-09T03:02:06;99857.94;;;20.66;73.47
51468;BME280;37545;45.302;-122.946;2023-10-09T03:04:34;99858.00;;;20.63;73.97
51468;BME280;37545;45.302;-122.946;2023-10-09T03:07:05;99859.06;;;20.56;74.91
51468;BME280;37545;45.302;-122.946;2023-10-09T03:09:34;99863.47;;;20.54;75.60
51468;BME280;37545;45.302;-122.946;2023-10-09T03:12:07;99861.00;;;20.48;75.43
51468;BME280;37545;45.302;-122.946;2023-10-09T03:14:39;99865.47;;;20.44;75.20
51468;BME280;37545;45.302;-122.946;2023-10-09T03:17:09;99870.88;;;20.38;75.53
51468;BME280;37545;45.302;-122.946;2023-10-09T03:19:38;99868.34;;;20.34;75.96
51468;BME280;37545;45.302;-122.946;2023-10-09T03:22:08;99863.31;;;20.24;76.27
51468;BME280;37545;45.302;-122.946;2023-10-09T03:24:39;99867.84;;;20.19;78.07
51468;BME280;37545;45.302;-122.946;2023-10-09T03:27:12;99868.88;;;20.12;78.82
51468;BME280;37545;45.302;-122.946;2023-10-09T03:29:42;99865.56;;;20.04;78.26
51468;BME280;37545;45.302;-122.946;2023-10-09T03:32:15;99879.69;;;20.00;78.33
51468;BME280;37545;45.302;-122.946;2023-10-09T03:34:46;99867.56;;;19.94;79.17
51468;BME280;37545;45.302;-122.946;2023-10-09T03:37:17;99865.97;;;19.87;78.91
51468;BME280;37545;45.302;-122.946;2023-10-09T03:40:00;99869.53;;;19.84;78.68
51468;BME280;37545;45.302;-122.946;2023-10-09T03:42:30;99874.88;;;19.81;78.69
51468;BME280;37545;45.302;-122.946;2023-10-09T03:44:59;99868.88;;;19.75;78.73
51468;BME280;37545;45.302;-122.946;2023-10-09T03:47:38;99857.63;;;19.68;78.67
51468;BME280;37545;45.302;-122.946;2023-10-09T03:50:09;99861.22;;;19.64;79.46
51468;BME280;37545;45.302;-122.946;2023-10-09T03:52:50;99863.06;;;19.59;79.89
51468;BME280;37545;45.302;-122.946;2023-10-09T03:55:21;99861.50;;;19.52;80.00
51468;BME280;37545;45.302;-122.946;2023-10-09T03:57:56;99852.94;;;19.42;80.84
51468;BME280;37545;45.302;-122.946;2023-10-09T04:00:28;99868.72;;;19.40;80.68
51468;BME280;37545;45.302;-122.946;2023-10-09T04:02:58;99861.84;;;19.33;82.46
51468;BME280;37545;45.302;-122.946;2023-10-09T04:05:27;99864.56;;;19.29;83.16
51468;BME280;37545;45.302;-122.946;2023-10-09T04:07:56;99862.91;;;19.24;83.51
51468;BME280;37545;45.302;-122.946;2023-10-09T04:10:30;99868.22;;;19.21;82.53
51468;BME280;37545;45.302;-122.946;2023-10-09T04:13:18;99866.59;;;19.14;82.73
51468;BME280;37545;45.302;-122.946;2023-10-09T04:16:00;99860.56;;;19.11;82.49
51468;BME280;37545;45.302;-122.946;2023-10-09T04:18:36;99870.19;;;19.10;81.76
51468;BME280;37545;45.302;-122.946;2023-10-09T04:21:08;99861.50;;;19.08;82.38
51468;BME280;37545;45.302;-122.946;2023-10-09T04:23:45;99865.94;;;19.04;82.76
51468;BME280;37545;45.302;-122.946;2023-10-09T04:26:43;99856.66;;;18.87;83.50
51468;BME280;37545;45.302;-122.946;2023-10-09T04:29:14;99865.34;;;18.90;83.98
51468;BME280;37545;45.302;-122.946;2023-10-09T04:31:52;99864.50;;;18.88;84.05
51468;BME280;37545;45.302;-122.946;2023-10-09T04:34:22;99870.59;;;18.89;84.03
51468;BME280;37545;45.302;-122.946;2023-10-09T04:36:56;99877.63;;;18.85;84.43
51468;BME280;37545;45.302;-122.946;2023-10-09T04:39:29;99885.56;;;18.82;84.03
51468;BME280;37545;45.302;-122.946;2023-10-09T04:42:13;99884.81;;;18.77;84.54
51468;BME280;37545;45.302;-122.946;2023-10-09T04:44:54;99890.94;;;18.73;85.06
51468;BME280;37545;45.302;-122.946;2023-10-09T04:47:43;99901.50;;;18.70;86.17
51468;BME280;37545;45.302;-122.946;2023-10-09T04:50:27;99891.25;;;18.56;85.90
51468;BME280;37545;45.302;-122.946;2023-10-09T04:53:15;99895.69;;;18.51;86.27
51468;BME280;37545;45.302;-122.946;2023-10-09T04:55:51;99901.84;;;18.48;85.99
51468;BME280;37545;45.302;-122.946;2023-10-09T04:58:26;99909.78;;;18.43;86.49
51468;BME280;37545;45.302;-122.946;2023-10-09T05:01:03;99917.69;;;18.42;87.39
51468;BME280;37545;45.302;-122.946;2023-10-09T05:03:40;99919.44;;;18.40;87.22
51468;BME280;37545;45.302;-122.946;2023-10-09T05:06:12;99919.47;;;18.38;86.76
51468;BME280;37545;45.302;-122.946;2023-10-09T05:09:11;99912.53;;;18.36;87.44
51468;BME280;37545;45.302;-122.946;2023-10-09T05:11:41;99919.53;;;18.34;89.88
51468;BME280;37545;45.302;-122.946;2023-10-09T05:14:26;99919.63;;;18.29;91.28
51468;BME280;37545;45.302;-122.946;2023-10-09T05:16:55;99924.88;;;18.28;89.65
51468;BME280;37545;45.302;-122.946;2023-10-09T05:19:27;99916.19;;;18.26;89.19
51468;BME280;37545;45.302;-122.946;2023-10-09T05:22:23;99921.44;;;18.26;89.10
51468;BME280;37545;45.302;-122.946;2023-10-09T05:25:05;99922.31;;;18.25;88.21
51468;BME280;37545;45.302;-122.946;2023-10-09T05:28:03;99917.97;;;18.22;87.95
51468;BME280;37545;45.302;-122.946;2023-10-09T05:30:50;99932.84;;;18.21;87.60
51468;BME280;37545;45.302;-122.946;2023-10-09T05:33:38;99944.19;;;18.20;87.01
51468;BME280;37545;45.302;-122.946;2023-10-09T05:36:06;99934.63;;;18.18;87.21
51468;BME280;37545;45.302;-122.946;2023-10-09T05:38:57;99940.78;;;18.15;86.79
51468;BME280;37545;45.302;-122.946;2023-10-09T05:41:43;99935.59;;;18.12;86.53
51468;BME280;37545;45.302;-122.946;2023-10-09T05:44:26;99928.66;;;18.08;86.32
51468;BME280;37545;45.302;-122.946;2023-10-09T05:47:10;99938.34;;;18.03;86.61
51468;BME280;37545;45.302;-122.946;2023-10-09T05:50:04;99938.47;;;17.94;87.23
51468;BME280;37545;45.302;-122.946;2023-10-09T05:52:49;99935.91;;;17.88;87.68
51468;BME280;37545;45.302;-122.946;2023-10-09T05:55:52;99943.81;;;17.85;87.72
51468;BME280;37545;45.302;-122.946;2023-10-09T05:58:38;99950.78;;;17.84;87.57
51468;BME280;37545;45.302;-122.946;2023-10-09T06:01:37;99954.31;;;17.78;86.50
51468;BME280;37545;45.302;-122.946;2023-10-09T06:04:22;99957.84;;;17.77;86.49
51468;BME280;37545;45.302;-122.946;2023-10-09T06:07:16;99961.34;;;17.75;86.51
51468;BME280;37545;45.302;-122.946;2023-10-09T06:09:53;99963.19;;;17.67;87.00
51468;BME280;37545;45.302;-122.946;2023-10-09T06:12:31;99972.03;;;17.58;89.79
51468;BME280;37545;45.302;-122.946;2023-10-09T06:15:22;99973.03;;;17.46;92.72
51468;BME280;37545;45.302;-122.946;2023-10-09T06:18:17;99957.44;;;17.35;92.89
51468;BME280;37545;45.302;-122.946;2023-10-09T06:20:59;99967.91;;;17.34;92.13
51468;BME280;37545;45.302;-122.946;2023-10-09T06:23:58;99962.72;;;17.32;91.89
51468;BME280;37545;45.302;-122.946;2023-10-09T06:26:46;99967.97;;;17.32;90.71
51468;BME280;37545;45.302;-122.946;2023-10-09T06:29:34;99974.03;;;17.31;90.33
51468;BME280;37545;45.302;-122.946;2023-10-09T06:32:17;99973.25;;;17.26;90.14
51468;BME280;37545;45.302;-122.946;2023-10-09T06:35:01;99966.31;;;17.22;89.72
51468;BME280;37545;45.302;-122.946;2023-10-09T06:37:48;99964.63;;;17.16;89.56
51468;BME280;37545;45.302;-122.946;2023-10-09T06:40:36;99969.91;;;17.12;88.67
51468;BME280;37545;45.302;-122.946;2023-10-09T06:43:22;99965.59;;;17.06;89.59
51468;BME280;37545;45.302;-122.946;2023-10-09T06:45:58;99962.16;;;17.01;89.19
51468;BME280;37545;45.302;-122.946;2023-10-09T06:48:47;99961.34;;;16.96;89.08
51468;BME280;37545;45.302;-122.946;2023-10-09T06:51:23;99965.75;;;16.91;89.59
51468;BME280;37545;45.302;-122.946;2023-10-09T06:54:07;99964.03;;;16.87;90.42
51468;BME280;37545;45.302;-122.946;2023-10-09T06:56:42;99971.06;;;16.82;91.46
51468;BME280;37545;45.302;-122.946;2023-10-09T06:59:42;99990.22;;;16.76;91.83
51468;BME280;37545;45.302;-122.946;2023-10-09T07:02:35;99984.16;;;16.72;91.16
51468;BME280;37545;45.302;-122.946;2023-10-09T07:05:12;99983.28;;;16.72;89.83
51468;BME280;37545;45.302;-122.946;2023-10-09T07:07:44;99996.38;;;16.69;90.22
51468;BME280;37545;45.302;-122.946;2023-10-09T07:10:22;99991.19;;;16.63;89.28
51468;BME280;37545;45.302;-122.946;2023-10-09T07:13:14;99999.06;;;16.61;87.81
51468;BME280;37545;45.302;-122.946;2023-10-09T07:15:44;99997.34;;;16.59;87.45
51468;BME280;37545;45.302;-122.946;2023-10-09T07:18:38;99996.47;;;16.53;88.50
51468;BME280;37545;45.302;-122.946;2023-10-09T07:21:18;100009.53;;;16.55;87.90
51468;BME280;37545;45.302;-122.946;2023-10-09T07:23:55;100019.97;;;16.53;87.49
51468;BME280;37545;45.302;-122.946;2023-10-09T07:26:40;100013.06;;;16.49;87.00
51468;BME280;37545;45.302;-122.946;2023-10-09T07:29:15;100021.72;;;16.53;86.91
51468;BME280;37545;45.302;-122.946;2023-10-09T07:31:51;100021.72;;;16.53;89.55
51468;BME280;37545;45.302;-122.946;2023-10-09T07:34:30;100018.25;;;16.51;90.00
51468;BME280;37545;45.302;-122.946;2023-10-09T07:37:20;100017.41;;;16.50;90.38
51468;BME280;37545;45.302;-122.946;2023-10-09T07:39:50;100018.25;;;16.51;89.28
51468;BME280;37545;45.302;-122.946;2023-10-09T07:42:25;100024.34;;;16.51;90.66
51468;BME280;37545;45.302;-122.946;2023-10-09T07:45:12;100009.63;;;16.40;90.29
51468;BME280;37545;45.302;-122.946;2023-10-09T07:48:00;100029.63;;;16.45;90.62
51468;BME280;37545;45.302;-122.946;2023-10-09T07:50:36;100020.06;;;16.40;90.37
51468;BME280;37545;45.302;-122.946;2023-10-09T07:53:14;100034.00;;;16.37;88.70
51468;BME280;37545;45.302;-122.946;2023-10-09T07:55:44;100032.28;;;16.36;88.70
51468;BME280;37545;45.302;-122.946;2023-10-09T07:58:24;100034.03;;;16.36;89.26
51468;BME280;37545;45.302;-122.946;2023-10-09T08:00:55;100033.19;;;16.30;88.73
51468;BME280;37545;45.302;-122.946;2023-10-09T08:03:46;100043.63;;;16.32;88.90
51468;BME280;37545;45.302;-122.946;2023-10-09T08:06:31;100042.78;;;16.27;89.28
51468;BME280;37545;45.302;-122.946;2023-10-09T08:09:11;100055.00;;;16.20;91.64
51468;BME280;37545;45.302;-122.946;2023-10-09T08:11:47;100052.41;;;16.12;91.27
51468;BME280;37545;45.302;-122.946;2023-10-09T08:14:41;100055.91;;;16.11;91.68
51468;BME280;37545;45.302;-122.946;2023-10-09T08:17:11;100049.81;;;16.11;92.62
51468;BME280;37545;45.302;-122.946;2023-10-09T08:19:41;100050.69;;;16.11;91.26
51468;BME280;37545;45.302;-122.946;2023-10-09T08:22:22;100052.44;;;16.09;91.62
51468;BME280;37545;45.302;-122.946;2023-10-09T08:25:07;100062.00;;;16.09;91.01
51468;BME280;37545;45.302;-122.946;2023-10-09T08:27:53;100057.66;;;16.06;90.61
51468;BME280;37545;45.302;-122.946;2023-10-09T08:30:26;100056.81;;;16.01;91.51
51468;BME280;37545;45.302;-122.946;2023-10-09T08:33:09;100060.31;;;15.89;96.01
51468;BME280;37545;45.302;-122.946;2023-10-09T08:35:54;100062.09;;;15.83;96.63
51468;BME280;37545;45.302;-122.946;2023-10-09T08:38:28;100065.59;;;15.77;96.68
51468;BME280;37545;45.302;-122.946;2023-10-09T08:41:10;100061.25;;;15.73;96.06
51468;BME280;37545;45.302;-122.946;2023-10-09T08:43:51;100070.78;;;15.76;96.73
51468;BME280;37545;45.302;-122.946;2023-10-09T08:46:20;100074.31;;;15.76;95.58
51468;BME280;37545;45.302;-122.946;2023-10-09T08:48:51;100070.78;;;15.76;94.49
51468;BME280;37545;45.302;-122.946;2023-10-09T08:51:20;100063.88;;;15.72;93.83
51468;BME280;37545;45.302;-122.946;2023-10-09T08:53:51;100071.69;;;15.72;92.89
51468;BME280;37545;45.302;-122.946;2023-10-09T08:56:20;100074.25;;;15.68;93.16
51468;BME280;37545;45.302;-122.946;2023-10-09T08:58:53;100071.66;;;15.68;92.67
51468;BME280;37545;45.302;-122.946;2023-10-09T09:01:23;100074.25;;;15.68;92.32
51468;BME280;37545;45.302;-122.946;2023-10-09T09:03:53;100076.88;;;15.68;91.97
51468;BME280;37545;45.302;-122.946;2023-10-09T09:06:24;100081.22;;;15.66;92.47
51468;BME280;37545;45.302;-122.946;2023-10-09T09:08:54;100078.63;;;15.65;91.91
51468;BME280;37545;45.302;-122.946;2023-10-09T09:11:44;100067.31;;;15.60;92.89
51468;BME280;37545;45.302;-122.946;2023-10-09T09:14:16;100081.25;;;15.59;92.31
51468;BME280;37545;45.302;-122.946;2023-10-09T09:16:48;100078.63;;;15.57;92.09
51468;BME280;37545;45.302;-122.946;2023-10-09T09:19:31;100074.28;;;15.55;92.21
51468;BME280;37545;45.302;-122.946;2023-10-09T09:22:04;100080.38;;;15.52;91.75
51468;BME280;37545;45.302;-122.946;2023-10-09T09:24:57;100071.69;;;15.50;92.45
51468;BME280;37545;45.302;-122.946;2023-10-09T09:27:47;100082.13;;;15.47;92.36
51468;BME280;37545;45.302;-122.946;2023-10-09T09:30:26;100077.78;;;15.43;92.15
51468;BME280;37545;45.302;-122.946;2023-10-09T09:33:00;100079.53;;;15.47;92.51
51468;BME280;37545;45.302;-122.946;2023-10-09T09:36:04;100069.94;;;15.46;92.60
51468;BME280;37545;45.302;-122.946;2023-10-09T09:38:34;100062.16;;;15.44;92.27
51468;BME280;37545;45.302;-122.946;2023-10-09T09:41:14;100050.88;;;15.44;93.20
51468;BME280;37545;45.302;-122.946;2023-10-09T09:43:53;100043.03;;;15.44;92.80
51468;BME280;37545;45.302;-122.946;2023-10-09T09:46:27;100031.75;;;15.36;92.45
51468;BME280;37545;45.302;-122.946;2023-10-09T09:49:00;100047.38;;;15.42;92.63
51468;BME280;37545;45.302;-122.946;2023-10-09T09:51:32;100046.53;;;15.40;92.21
51468;BME280;37545;45.302;-122.946;2023-10-09T09:54:01;100046.50;;;15.38;92.45
51468;BME280;37545;45.302;-122.946;2023-10-09T09:56:37;100043.91;;;15.37;92.72
51468;BME280;37545;45.302;-122.946;2023-10-09T09:59:08;100043.91;;;15.35;92.98
51468;BME280;37545;45.302;-122.946;2023-10-09T10:01:49;100036.09;;;15.32;93.12
51468;BME280;37545;45.302;-122.946;2023-10-09T10:04:26;100038.69;;;15.32;93.95
51468;BME280;37545;45.302;-122.946;2023-10-09T10:06:57;100047.41;;;15.31;93.83
51468;BME280;37545;45.302;-122.946;2023-10-09T10:09:37;100051.75;;;15.31;93.80
51468;BME280;37545;45.302;-122.946;2023-10-09T10:12:07;100046.53;;;15.31;93.58
51468;BME280;37545;45.302;-122.946;2023-10-09T10:14:54;100038.72;;;15.29;93.85
51468;BME280;37545;45.302;-122.946;2023-10-09T10:18:07;100034.38;;;15.31;93.50
51468;BME280;37545;45.302;-122.946;2023-10-09T10:21:09;100030.00;;;15.32;94.47
51468;BME280;37545;45.302;-122.946;2023-10-09T10:23:43;100020.47;;;15.31;94.12
51468;BME280;37545;45.302;-122.946;2023-10-09T10:26:23;100030.00;;;15.32;93.89
51468;BME280;37545;45.302;-122.946;2023-10-09T10:29:17;100017.88;;;15.31;93.71
51468;BME280;37545;45.302;-122.946;2023-10-09T10:31:59;100018.72;;;15.31;93.29
51468;BME280;37545;45.302;-122.946;2023-10-09T10:34:53;100012.66;;;15.31;95.09
51468;BME280;37545;45.302;-122.946;2023-10-09T10:37:36;100008.31;;;15.33;95.32
51468;BME280;37545;45.302;-122.946;2023-10-09T10:40:13;100007.41;;;15.34;94.92
51468;BME280;37545;45.302;-122.946;2023-10-09T10:43:04;100000.47;;;15.36;93.84
51468;BME280;37545;45.302;-122.946;2023-10-09T10:45:40;100004.81;;;15.37;94.67
51468;BME280;37545;45.302;-122.946;2023-10-09T10:48:11;99995.25;;;15.36;94.12
51468;BME280;37545;45.302;-122.946;2023-10-09T10:50:49;99989.16;;;15.37;93.77
51468;BME280;37545;45.302;-122.946;2023-10-09T10:53:24;99992.66;;;15.37;93.87
51468;BME280;37545;45.302;-122.946;2023-10-09T10:56:03;99988.31;;;15.38;94.10
51468;BME280;37545;45.302;-122.946;2023-10-09T10:58:52;99976.13;;;15.40;93.50
51468;BME280;37545;45.302;-122.946;2023-10-09T11:01:37;99984.81;;;15.39;93.25
51468;BME280;37545;45.302;-122.946;2023-10-09T11:04:25;99983.06;;;15.42;92.95
51468;BME280;37545;45.302;-122.946;2023-10-09T11:07:05;99966.56;;;15.42;91.85
51468;BME280;37545;45.302;-122.946;2023-10-09T11:09:49;99947.44;;;15.44;93.24
51468;BME280;37545;45.302;-122.946;2023-10-09T11:12:45;99968.31;;;15.43;93.32
51468;BME280;37545;45.302;-122.946;2023-10-09T11:15:39;99970.03;;;15.41;92.99
51468;BME280;37545;45.302;-122.946;2023-10-09T11:18:24;99956.13;;;15.45;92.25
51468;BME280;37545;45.302;-122.946;2023-10-09T11:20:54;99948.31;;;15.45;92.24
51468;BME280;37545;45.302;-122.946;2023-10-09T11:23:48;99962.22;;;15.47;92.05
51468;BME280;37545;45.302;-122.946;2023-10-09T11:26:36;99955.25;;;15.49;91.60
51468;BME280;37545;45.302;-122.946;2023-10-09T11:29:14;99950.91;;;15.48;91.40
51468;BME280;37545;45.302;-122.946;2023-10-09T11:32:00;99947.44;;;15.49;91.24
51468;BME280;37545;45.302;-122.946;2023-10-09T11:34:28;99943.94;;;15.52;91.09
51468;BME280;37545;45.302;-122.946;2023-10-09T11:37:02;99941.34;;;15.47;95.88
51468;BME280;37545;45.302;-122.946;2023-10-09T11:39:32;99946.59;;;15.38;97.33
51468;BME280;37545;45.302;-122.946;2023-10-09T11:42:02;99939.66;;;15.34;96.51
51468;BME280;37545;45.302;-122.946;2023-10-09T11:44:39;99939.66;;;15.32;97.33
51468;BME280;37545;45.302;-122.946;2023-10-09T11:47:11;99926.63;;;15.34;96.93
51468;BME280;37545;45.302;-122.946;2023-10-09T11:49:57;99909.25;;;15.36;96.62
51468;BME280;37545;45.302;-122.946;2023-10-09T11:52:56;99891.88;;;15.35;95.37
51468;BME280;37545;45.302;-122.946;2023-10-09T11:55:38;99878.00;;;15.28;94.89
51468;BME280;37545;45.302;-122.946;2023-10-09T11:58:08;99891.88;;;15.35;94.18
51468;BME280;37545;45.302;-122.946;2023-10-09T12:00:40;99901.44;;;15.33;94.32
51468;BME280;37545;45.302;-122.946;2023-10-09T12:03:15;99910.97;;;15.37;94.02
51468;BME280;37545;45.302;-122.946;2023-10-09T12:05:43;99901.41;;;15.39;93.77
51468;BME280;37545;45.302;-122.946;2023-10-09T12:08:12;99900.53;;;15.40;93.04
51468;BME280;37545;45.302;-122.946;2023-10-09T12:10:43;99886.63;;;15.42;92.93
51468;BME280;37545;45.302;-122.946;2023-10-09T12:13:14;99899.66;;;15.44;95.03
51468;BME280;37545;45.302;-122.946;2023-10-09T12:15:45;99896.19;;;15.42;95.01
51468;BME280;37545;45.302;-122.946;2023-10-09T12:18:16;99883.16;;;15.42;94.10
51468;BME280;37545;45.302;-122.946;2023-10-09T12:20:45;99892.69;;;15.44;93.20
51468;BME280;37545;45.302;-122.946;2023-10-09T12:23:17;99901.38;;;15.45;93.74
51468;BME280;37545;45.302;-122.946;2023-10-09T12:25:48;99902.25;;;15.45;93.60
51468;BME280;37545;45.302;-122.946;2023-10-09T12:28:25;99900.50;;;15.47;93.36
51468;BME280;37545;45.302;-122.946;2023-10-09T12:30:56;99875.28;;;15.51;93.96
51468;BME280;37545;45.302;-122.946;2023-10-09T12:33:32;99883.97;;;15.53;93.96
51468;BME280;37545;45.302;-122.946;2023-10-09T12:36:06;99864.84;;;15.54;94.55
51468;BME280;37545;45.302;-122.946;2023-10-09T12:38:34;99852.66;;;15.56;95.30
51468;BME280;37545;45.302;-122.946;2023-10-09T12:41:04;99854.41;;;15.56;94.49
51468;BME280;37545;45.302;-122.946;2023-10-09T12:43:44;99871.78;;;15.55;94.54
51468;BME280;37545;45.302;-122.946;2023-10-09T12:46:14;99868.31;;;15.56;94.34
51468;BME280;37545;45.302;-122.946;2023-10-09T12:48:43;99875.28;;;15.54;93.87
51468;BME280;37545;45.302;-122.946;2023-10-09T12:51:16;99863.16;;;15.48;94.36
51468;BME280;37545;45.302;-122.946;2023-10-09T12:53:44;99871.81;;;15.52;94.58
51468;BME280;37545;45.302;-122.946;2023-10-09T12:56:15;99880.50;;;15.51;93.75
51468;BME280;37545;45.302;-122.946;2023-10-09T12:58:44;99884.84;;;15.50;94.00
51468;BME280;37545;45.302;-122.946;2023-10-09T13:01:23;99883.97;;;15.53;93.73
51468;BME280;37545;45.302;-122.946;2023-10-09T13:03:52;99875.28;;;15.54;94.29
51468;BME280;37545;45.302;-122.946;2023-10-09T13:06:20;99865.69;;;15.55;94.48
51468;BME280;37545;45.302;-122.946;2023-10-09T13:08:51;99861.38;;;15.50;96.32
51468;BME280;37545;45.302;-122.946;2023-10-09T13:11:22;99869.25;;;15.43;97.11
51468;BME280;37545;45.302;-122.946;2023-10-09T13:13:55;99861.47;;;15.35;98.10
51468;BME280;37545;45.302;-122.946;2023-10-09T13:16:34;99858.00;;;15.35;98.18
51468;BME280;37545;45.302;-122.946;2023-10-09T13:19:03;99853.63;;;15.40;97.41
51468;BME280;37545;45.302;-122.946;2023-10-09T13:21:36;99855.34;;;15.41;97.03